sensor_id;sensor_type;location;lat;lon;timestamp;temperature;humidity
65462;DHT22;53236;43.666;18.444;2024-01-30T00:01:52;-7.40;99.90
65462;DHT22;53236;43.666;18.444;2024-01-30T00:04:18;-7.40;99.90
65462;DHT22;53236;43.666;18.444;2024-01-30T00:06:44;-7.40;99.90
65462;DHT22;53236;43.666;18.444;2024-01-30T00:09:10;-7.40;99.90
65462;DHT22;53236;43.666;18.444;2024-01-30T00:11:37;-7.40;99.90
65462;DHT22;53236;43.666;18.444;2024-01-30T00:14:04;-7.40;99.90
65462;DHT22;53236;43.666;18.444;2024-01-30T00:16:30;-7.40;99.90
65462;DHT22;53236;43.666;18.444;2024-01-30T00:18:56;-7.50;99.90
65462;DHT22;53236;43.666;18.444;2024-01-30T00:21:23;-7.50;99.90
65462;DHT22;53236;43.666;18.444;2024-01-30T00:23:49;-7.50;99.90
65462;DHT22;53236;43.666;18.444;2024-01-30T00:26:15;-7.50;99.90
65462;DHT22;53236;43.666;18.444;2024-01-30T00:28:41;-7.60;99.90
65462;DHT22;53236;43.666;18.444;2024-01-30T00:31:08;-7.60;99.90
65462;DHT22;53236;43.666;18.444;2024-01-30T00:33:38;-7.60;99.90
65462;DHT22;53236;43.666;18.444;2024-01-30T00:36:05;-7.60;99.90
65462;DHT22;53236;43.666;18.444;2024-01-30T00:38:32;-7.70;99.90
65462;DHT22;53236;43.666;18.444;2024-01-30T00:40:57;-7.80;99.90
65462;DHT22;53236;43.666;18.444;2024-01-30T00:43:23;-7.80;99.90
65462;DHT22;53236;43.666;18.444;2024-01-30T00:45:50;-7.80;99.90
65462;DHT22;53236;43.666;18.444;2024-01-30T00:48:18;-7.70;99.90
65462;DHT22;53236;43.666;18.444;2024-01-30T00:50:44;-7.80;99.90
65462;DHT22;53236;43.666;18.444;2024-01-30T00:53:09;-7.80;99.90
65462;DHT22;53236;43.666;18.444;2024-01-30T00:55:35;-7.90;99.90
65462;DHT22;53236;43.666;18.444;2024-01-30T00:58:01;-7.90;99.90
65462;DHT22;53236;43.666;18.444;2024-01-30T01:00:28;-8.00;99.90
65462;DHT22;53236;43.666;18.444;2024-01-30T01:02:58;-8.00;99.90
65462;DHT22;53236;43.666;18.444;2024-01-30T01:05:24;-8.00;99.90
65462;DHT22;53236;43.666;18.444;2024-01-30T01:07:50;-8.00;99.90
65462;DHT22;53236;43.666;18.444;2024-01-30T01:10:19;-8.00;99.90
65462;DHT22;53236;43.666;18.444;2024-01-30T01:12:45;-8.00;99.90
65462;DHT22;53236;43.666;18.444;2024-01-30T01:15:11;-8.00;99.90
65462;DHT22;53236;43.666;18.444;2024-01-30T01:17:38;-8.10;99.90
65462;DHT22;53236;43.666;18.444;2024-01-30T01:20:05;-8.10;99.90
65462;DHT22;53236;43.666;18.444;2024-01-30T01:22:32;-8.10;99.90
65462;DHT22;53236;43.666;18.444;2024-01-30T01:24:58;-8.20;99.90
65462;DHT22;53236;43.666;18.444;2024-01-30T01:27:24;-8.20;99.90
65462;DHT22;53236;43.666;18.444;2024-01-30T01:29:51;-8.20;99.90
65462;DHT22;53236;43.666;18.444;2024-01-30T01:32:17;-8.30;99.90
65462;DHT22;53236;43.666;18.444;2024-01-30T01:34:42;-8.40;99.90
65462;DHT22;53236;43.666;18.444;2024-01-30T01:37:08;-8.40;99.90
65462;DHT22;53236;43.666;18.444;2024-01-30T01:39:34;-8.40;99.90
65462;DHT22;53236;43.666;18.444;2024-01-30T01:42:00;-8.40;99.90
65462;DHT22;53236;43.666;18.444;2024-01-30T01:44:26;-8.40;99.90
65462;DHT22;53236;43.666;18.444;2024-01-30T01:46:53;-8.40;99.90
65462;DHT22;53236;43.666;18.444;2024-01-30T01:49:20;-8.40;99.90
65462;DHT22;53236;43.666;18.444;2024-01-30T01:51:48;-8.50;99.90
65462;DHT22;53236;43.666;18.444;2024-01-30T01:54:15;-8.50;99.90
65462;DHT22;53236;43.666;18.444;2024-01-30T01:56:42;-8.50;99.90
65462;DHT22;53236;43.666;18.444;2024-01-30T01:59:08;-8.50;99.90
65462;DHT22;53236;43.666;18.444;2024-01-30T02:01:38;-8.50;99.90
65462;DHT22;53236;43.666;18.444;2024-01-30T02:04:07;-8.50;99.90
65462;DHT22;53236;43.666;18.444;2024-01-30T02:06:34;-8.60;99.90
65462;DHT22;53236;43.666;18.444;2024-01-30T02:08:59;-8.60;99.90
65462;DHT22;53236;43.666;18.444;2024-01-30T02:11:25;-8.60;99.90
65462;DHT22;53236;43.666;18.444;2024-01-30T02:13:52;-8.60;99.90
65462;DHT22;53236;43.666;18.444;2024-01-30T02:16:18;-8.60;99.90
65462;DHT22;53236;43.666;18.444;2024-01-30T02:18:44;-8.60;99.90
65462;DHT22;53236;43.666;18.444;2024-01-30T02:21:16;-8.60;99.90
65462;DHT22;53236;43.666;18.444;2024-01-30T02:23:43;-8.70;99.90
65462;DHT22;53236;43.666;18.444;2024-01-30T02:26:10;-8.60;99.90
65462;DHT22;53236;43.666;18.444;2024-01-30T02:28:36;-8.70;99.90
65462;DHT22;53236;43.666;18.444;2024-01-30T02:31:02;-8.70;99.90
65462;DHT22;53236;43.666;18.444;2024-01-30T02:33:28;-8.70;99.90
65462;DHT22;53236;43.666;18.444;2024-01-30T02:35:53;-8.70;99.90
65462;DHT22;53236;43.666;18.444;2024-01-30T02:38:20;-8.80;99.90
65462;DHT22;53236;43.666;18.444;2024-01-30T02:40:46;-8.80;99.90
65462;DHT22;53236;43.666;18.444;2024-01-30T02:43:12;-8.80;99.90
65462;DHT22;53236;43.666;18.444;2024-01-30T02:45:38;-8.80;99.90
65462;DHT22;53236;43.666;18.444;2024-01-30T02:48:04;-8.90;99.90
65462;DHT22;53236;43.666;18.444;2024-01-30T02:50:29;-9.00;99.90
65462;DHT22;53236;43.666;18.444;2024-01-30T02:52:55;-9.00;99.90
65462;DHT22;53236;43.666;18.444;2024-01-30T02:55:21;-9.00;99.90
65462;DHT22;53236;43.666;18.444;2024-01-30T02:57:46;-9.00;99.90
65462;DHT22;53236;43.666;18.444;2024-01-30T03:00:13;-9.00;99.90
65462;DHT22;53236;43.666;18.444;2024-01-30T03:02:38;-9.00;99.90
65462;DHT22;53236;43.666;18.444;2024-01-30T03:05:06;-9.00;99.90
65462;DHT22;53236;43.666;18.444;2024-01-30T03:07:33;-9.00;99.90
65462;DHT22;53236;43.666;18.444;2024-01-30T03:09:59;-9.10;99.90
65462;DHT22;53236;43.666;18.444;2024-01-30T03:12:25;-9.00;99.90
65462;DHT22;53236;43.666;18.444;2024-01-30T03:14:50;-9.10;99.90
65462;DHT22;53236;43.666;18.444;2024-01-30T03:17:16;-9.10;99.90
65462;DHT22;53236;43.666;18.444;2024-01-30T03:19:42;-9.00;99.90
65462;DHT22;53236;43.666;18.444;2024-01-30T03:22:08;-9.10;99.90
65462;DHT22;53236;43.666;18.444;2024-01-30T03:24:33;-9.10;99.90
65462;DHT22;53236;43.666;18.444;2024-01-30T03:26:59;-9.10;99.90
65462;DHT22;53236;43.666;18.444;2024-01-30T03:29:25;-9.10;99.90
65462;DHT22;53236;43.666;18.444;2024-01-30T03:31:51;-9.10;99.90
65462;DHT22;53236;43.666;18.444;2024-01-30T03:34:16;-9.20;99.90
65462;DHT22;53236;43.666;18.444;2024-01-30T03:36:42;-9.30;99.90
65462;DHT22;53236;43.666;18.444;2024-01-30T03:39:08;-9.20;99.90
65462;DHT22;53236;43.666;18.444;2024-01-30T03:41:34;-9.20;99.90
65462;DHT22;53236;43.666;18.444;2024-01-30T03:43:59;-9.30;99.90
65462;DHT22;53236;43.666;18.444;2024-01-30T03:46:25;-9.30;99.90
65462;DHT22;53236;43.666;18.444;2024-01-30T03:48:51;-9.40;99.90
65462;DHT22;53236;43.666;18.444;2024-01-30T03:51:17;-9.30;99.90
65462;DHT22;53236;43.666;18.444;2024-01-30T03:53:43;-9.30;99.90
65462;DHT22;53236;43.666;18.444;2024-01-30T03:56:09;-9.30;99.90
65462;DHT22;53236;43.666;18.444;2024-01-30T03:58:35;-9.40;99.90
65462;DHT22;53236;43.666;18.444;2024-01-30T04:01:01;-9.40;99.90
65462;DHT22;53236;43.666;18.444;2024-01-30T04:03:27;-9.30;99.90
65462;DHT22;53236;43.666;18.444;2024-01-30T04:05:53;-9.40;99.90
65462;DHT22;53236;43.666;18.444;2024-01-30T04:08:19;-9.50;99.90
65462;DHT22;53236;43.666;18.444;2024-01-30T04:10:46;-9.50;99.90
65462;DHT22;53236;43.666;18.444;2024-01-30T04:13:13;-9.50;99.90
65462;DHT22;53236;43.666;18.444;2024-01-30T04:15:39;-9.50;99.90
65462;DHT22;53236;43.666;18.444;2024-01-30T04:18:05;-9.50;99.90
65462;DHT22;53236;43.666;18.444;2024-01-30T04:20:31;-9.60;99.90
65462;DHT22;53236;43.666;18.444;2024-01-30T04:22:57;-9.50;99.90
65462;DHT22;53236;43.666;18.444;2024-01-30T04:25:23;-9.50;99.90
65462;DHT22;53236;43.666;18.444;2024-01-30T04:27:49;-9.60;99.90
65462;DHT22;53236;43.666;18.444;2024-01-30T04:30:15;-9.60;99.90
65462;DHT22;53236;43.666;18.444;2024-01-30T04:32:40;-9.60;99.90
65462;DHT22;53236;43.666;18.444;2024-01-30T04:35:06;-9.60;99.90
65462;DHT22;53236;43.666;18.444;2024-01-30T04:37:32;-9.60;99.90
65462;DHT22;53236;43.666;18.444;2024-01-30T04:39:58;-9.60;99.90
65462;DHT22;53236;43.666;18.444;2024-01-30T04:42:24;-9.70;99.90
65462;DHT22;53236;43.666;18.444;2024-01-30T04:44:50;-9.70;99.90
65462;DHT22;53236;43.666;18.444;2024-01-30T04:47:16;-9.70;99.90
65462;DHT22;53236;43.666;18.444;2024-01-30T04:49:42;-9.70;99.90
65462;DHT22;53236;43.666;18.444;2024-01-30T04:52:08;-9.70;99.90
65462;DHT22;53236;43.666;18.444;2024-01-30T04:54:35;-9.70;99.90
65462;DHT22;53236;43.666;18.444;2024-01-30T04:57:02;-9.80;99.90
65462;DHT22;53236;43.666;18.444;2024-01-30T04:59:27;-9.80;99.90
65462;DHT22;53236;43.666;18.444;2024-01-30T05:01:53;-9.80;99.90
65462;DHT22;53236;43.666;18.444;2024-01-30T05:04:19;-9.90;99.90
65462;DHT22;53236;43.666;18.444;2024-01-30T05:06:45;-9.80;99.90
65462;DHT22;53236;43.666;18.444;2024-01-30T05:09:11;-9.90;99.90
65462;DHT22;53236;43.666;18.444;2024-01-30T05:11:40;-9.90;99.90
65462;DHT22;53236;43.666;18.444;2024-01-30T05:14:06;-9.90;99.90
65462;DHT22;53236;43.666;18.444;2024-01-30T05:16:32;-10.00;99.90
65462;DHT22;53236;43.666;18.444;2024-01-30T05:18:58;-9.90;99.90
65462;DHT22;53236;43.666;18.444;2024-01-30T05:21:24;-9.90;99.90
65462;DHT22;53236;43.666;18.444;2024-01-30T05:23:50;-10.00;99.90
65462;DHT22;53236;43.666;18.444;2024-01-30T05:26:16;-10.00;99.90
65462;DHT22;53236;43.666;18.444;2024-01-30T05:28:42;-10.10;99.90
65462;DHT22;53236;43.666;18.444;2024-01-30T05:31:10;-10.10;99.90
65462;DHT22;53236;43.666;18.444;2024-01-30T05:33:35;-10.00;99.90
65462;DHT22;53236;43.666;18.444;2024-01-30T05:36:01;-10.10;99.90
65462;DHT22;53236;43.666;18.444;2024-01-30T05:38:30;-10.10;99.90
65462;DHT22;53236;43.666;18.444;2024-01-30T05:40:57;-10.10;99.90
65462;DHT22;53236;43.666;18.444;2024-01-30T05:43:24;-10.10;99.90
65462;DHT22;53236;43.666;18.444;2024-01-30T05:45:50;-10.10;99.90
65462;DHT22;53236;43.666;18.444;2024-01-30T05:48:17;-10.20;99.90
65462;DHT22;53236;43.666;18.444;2024-01-30T05:50:42;-10.20;99.90
65462;DHT22;53236;43.666;18.444;2024-01-30T05:53:08;-10.20;99.90
65462;DHT22;53236;43.666;18.444;2024-01-30T05:55:34;-10.20;99.90
65462;DHT22;53236;43.666;18.444;2024-01-30T05:58:00;-10.20;99.90
65462;DHT22;53236;43.666;18.444;2024-01-30T06:00:25;-10.20;99.90
65462;DHT22;53236;43.666;18.444;2024-01-30T06:02:51;-10.20;99.90
65462;DHT22;53236;43.666;18.444;2024-01-30T06:05:17;-10.20;99.90
65462;DHT22;53236;43.666;18.444;2024-01-30T06:07:43;-10.20;99.90
65462;DHT22;53236;43.666;18.444;2024-01-30T06:10:09;-10.20;99.90
65462;DHT22;53236;43.666;18.444;2024-01-30T06:12:38;-10.20;99.90
65462;DHT22;53236;43.666;18.444;2024-01-30T06:15:04;-10.10;99.90
65462;DHT22;53236;43.666;18.444;2024-01-30T06:17:30;-10.00;99.90
65462;DHT22;53236;43.666;18.444;2024-01-30T06:19:55;-10.10;99.90
65462;DHT22;53236;43.666;18.444;2024-01-30T06:22:21;-10.00;99.90
65462;DHT22;53236;43.666;18.444;2024-01-30T06:24:47;-9.90;99.90
65462;DHT22;53236;43.666;18.444;2024-01-30T06:27:16;-9.90;99.90
65462;DHT22;53236;43.666;18.444;2024-01-30T06:29:43;-9.90;99.90
65462;DHT22;53236;43.666;18.444;2024-01-30T06:32:09;-9.90;99.90
65462;DHT22;53236;43.666;18.444;2024-01-30T06:34:35;-9.80;99.90
65462;DHT22;53236;43.666;18.444;2024-01-30T06:37:00;-9.80;99.90
65462;DHT22;53236;43.666;18.444;2024-01-30T06:39:26;-9.70;99.90
65462;DHT22;53236;43.666;18.444;2024-01-30T06:41:52;-9.70;99.90
65462;DHT22;53236;43.666;18.444;2024-01-30T06:44:18;-9.70;99.90
65462;DHT22;53236;43.666;18.444;2024-01-30T06:46:44;-9.60;99.90
65462;DHT22;53236;43.666;18.444;2024-01-30T06:49:10;-9.50;99.90
65462;DHT22;53236;43.666;18.444;2024-01-30T06:51:35;-9.50;99.90
65462;DHT22;53236;43.666;18.444;2024-01-30T06:54:01;-9.40;99.90
65462;DHT22;53236;43.666;18.444;2024-01-30T06:56:28;-8.90;99.90
65462;DHT22;53236;43.666;18.444;2024-01-30T06:58:53;-6.40;99.90
65462;DHT22;53236;43.666;18.444;2024-01-30T07:01:19;-2.70;99.90
65462;DHT22;53236;43.666;18.444;2024-01-30T07:03:45;0.60;85.40
65462;DHT22;53236;43.666;18.444;2024-01-30T07:06:11;3.40;69.90
65462;DHT22;53236;43.666;18.444;2024-01-30T07:08:37;6.10;61.40
65462;DHT22;53236;43.666;18.444;2024-01-30T07:11:05;8.50;54.10
65462;DHT22;53236;43.666;18.444;2024-01-30T07:13:31;10.70;49.30
65462;DHT22;53236;43.666;18.444;2024-01-30T07:15:57;12.60;44.80
65462;DHT22;53236;43.666;18.444;2024-01-30T07:18:23;14.20;41.20
65462;DHT22;53236;43.666;18.444;2024-01-30T07:20:49;15.60;40.20
65462;DHT22;53236;43.666;18.444;2024-01-30T07:23:16;17.00;37.10
65462;DHT22;53236;43.666;18.444;2024-01-30T07:25:46;17.70;36.60
65462;DHT22;53236;43.666;18.444;2024-01-30T07:28:14;18.90;34.60
65462;DHT22;53236;43.666;18.444;2024-01-30T07:30:43;19.50;33.90
65462;DHT22;53236;43.666;18.444;2024-01-30T07:33:09;19.60;33.50
65462;DHT22;53236;43.666;18.444;2024-01-30T07:35:35;20.00;33.20
65462;DHT22;53236;43.666;18.444;2024-01-30T07:38:01;20.60;32.30
65462;DHT22;53236;43.666;18.444;2024-01-30T07:40:27;21.00;32.00
65462;DHT22;53236;43.666;18.444;2024-01-30T07:42:54;21.50;31.00
65462;DHT22;53236;43.666;18.444;2024-01-30T07:45:20;22.20;31.70
65462;DHT22;53236;43.666;18.444;2024-01-30T07:47:49;22.70;30.40
65462;DHT22;53236;43.666;18.444;2024-01-30T07:50:15;23.40;30.20
65462;DHT22;53236;43.666;18.444;2024-01-30T07:52:42;23.60;29.70
65462;DHT22;53236;43.666;18.444;2024-01-30T07:55:08;24.00;29.70
65462;DHT22;53236;43.666;18.444;2024-01-30T07:57:34;24.10;29.40
65462;DHT22;53236;43.666;18.444;2024-01-30T08:00:00;24.90;29.40
65462;DHT22;53236;43.666;18.444;2024-01-30T08:02:26;25.00;28.50
65462;DHT22;53236;43.666;18.444;2024-01-30T08:04:52;24.60;28.80
65462;DHT22;53236;43.666;18.444;2024-01-30T08:07:18;24.70;29.00
65462;DHT22;53236;43.666;18.444;2024-01-30T08:09:44;24.70;29.00
65462;DHT22;53236;43.666;18.444;2024-01-30T08:12:09;24.50;28.70
65462;DHT22;53236;43.666;18.444;2024-01-30T08:14:35;24.20;28.50
65462;DHT22;53236;43.666;18.444;2024-01-30T08:17:01;23.50;27.80
65462;DHT22;53236;43.666;18.444;2024-01-30T08:19:26;23.60;28.80
65462;DHT22;53236;43.666;18.444;2024-01-30T08:21:52;23.60;29.00
65462;DHT22;53236;43.666;18.444;2024-01-30T08:24:18;24.20;29.60
65462;DHT22;53236;43.666;18.444;2024-01-30T08:26:44;24.60;28.90
65462;DHT22;53236;43.666;18.444;2024-01-30T08:29:09;25.30;28.40
65462;DHT22;53236;43.666;18.444;2024-01-30T08:31:35;26.10;27.60
65462;DHT22;53236;43.666;18.444;2024-01-30T08:34:01;26.10;28.60
65462;DHT22;53236;43.666;18.444;2024-01-30T08:36:27;25.60;28.40
65462;DHT22;53236;43.666;18.444;2024-01-30T08:38:53;25.90;28.50
65462;DHT22;53236;43.666;18.444;2024-01-30T08:41:18;27.00;28.40
65462;DHT22;53236;43.666;18.444;2024-01-30T08:43:44;27.70;27.70
65462;DHT22;53236;43.666;18.444;2024-01-30T08:46:11;28.40;28.30
65462;DHT22;53236;43.666;18.444;2024-01-30T08:48:37;28.70;28.20
65462;DHT22;53236;43.666;18.444;2024-01-30T08:51:03;29.20;27.40
65462;DHT22;53236;43.666;18.444;2024-01-30T08:53:28;29.80;27.80
65462;DHT22;53236;43.666;18.444;2024-01-30T08:55:54;29.70;27.50
65462;DHT22;53236;43.666;18.444;2024-01-30T08:58:20;30.30;27.60
65462;DHT22;53236;43.666;18.444;2024-01-30T09:00:46;31.50;27.00
65462;DHT22;53236;43.666;18.444;2024-01-30T09:03:12;31.50;27.50
65462;DHT22;53236;43.666;18.444;2024-01-30T09:05:38;31.60;27.50
65462;DHT22;53236;43.666;18.444;2024-01-30T09:08:04;31.20;27.30
65462;DHT22;53236;43.666;18.444;2024-01-30T09:10:29;31.30;27.00
65462;DHT22;53236;43.666;18.444;2024-01-30T09:12:55;30.70;27.40
65462;DHT22;53236;43.666;18.444;2024-01-30T09:15:21;31.80;27.60
65462;DHT22;53236;43.666;18.444;2024-01-30T09:17:47;32.30;27.50
65462;DHT22;53236;43.666;18.444;2024-01-30T09:20:13;32.80;27.50
65462;DHT22;53236;43.666;18.444;2024-01-30T09:22:38;32.80;26.90
65462;DHT22;53236;43.666;18.444;2024-01-30T09:25:04;33.80;27.00
65462;DHT22;53236;43.666;18.444;2024-01-30T09:27:30;33.60;27.20
65462;DHT22;53236;43.666;18.444;2024-01-30T09:29:56;33.20;26.90
65462;DHT22;53236;43.666;18.444;2024-01-30T09:32:22;32.20;27.40
65462;DHT22;53236;43.666;18.444;2024-01-30T09:34:48;32.30;27.40
65462;DHT22;53236;43.666;18.444;2024-01-30T09:37:13;32.60;27.30
65462;DHT22;53236;43.666;18.444;2024-01-30T09:39:41;32.60;27.20
65462;DHT22;53236;43.666;18.444;2024-01-30T09:42:25;33.20;27.60
65462;DHT22;53236;43.666;18.444;2024-01-30T09:44:53;33.50;26.90
65462;DHT22;53236;43.666;18.444;2024-01-30T09:47:19;34.00;27.00
65462;DHT22;53236;43.666;18.444;2024-01-30T09:49:45;33.90;26.90
65462;DHT22;53236;43.666;18.444;2024-01-30T09:52:11;34.60;26.60
65462;DHT22;53236;43.666;18.444;2024-01-30T09:54:38;34.70;27.00
65462;DHT22;53236;43.666;18.444;2024-01-30T09:57:04;34.20;26.60
65462;DHT22;53236;43.666;18.444;2024-01-30T09:59:31;34.30;26.50
65462;DHT22;53236;43.666;18.444;2024-01-30T10:01:57;34.20;26.60
65462;DHT22;53236;43.666;18.444;2024-01-30T10:04:23;34.70;26.70
65462;DHT22;53236;43.666;18.444;2024-01-30T10:06:50;34.60;26.80
65462;DHT22;53236;43.666;18.444;2024-01-30T10:09:16;35.30;26.90
65462;DHT22;53236;43.666;18.444;2024-01-30T10:11:42;35.20;26.70
65462;DHT22;53236;43.666;18.444;2024-01-30T10:14:08;34.80;26.20
65462;DHT22;53236;43.666;18.444;2024-01-30T10:16:34;34.80;26.30
65462;DHT22;53236;43.666;18.444;2024-01-30T10:19:00;35.00;26.40
65462;DHT22;53236;43.666;18.444;2024-01-30T10:21:26;34.80;26.20
65462;DHT22;53236;43.666;18.444;2024-01-30T10:23:52;33.60;26.60
65462;DHT22;53236;43.666;18.444;2024-01-30T10:26:18;33.40;26.00
65462;DHT22;53236;43.666;18.444;2024-01-30T10:28:44;33.90;26.20
65462;DHT22;53236;43.666;18.444;2024-01-30T10:31:10;34.00;26.00
65462;DHT22;53236;43.666;18.444;2024-01-30T10:33:36;33.80;26.30
65462;DHT22;53236;43.666;18.444;2024-01-30T10:36:05;34.10;26.40
65462;DHT22;53236;43.666;18.444;2024-01-30T10:38:32;34.50;25.60
65462;DHT22;53236;43.666;18.444;2024-01-30T10:40:59;34.60;26.30
65462;DHT22;53236;43.666;18.444;2024-01-30T10:43:35;35.40;25.80
65462;DHT22;53236;43.666;18.444;2024-01-30T10:46:10;34.30;25.60
65462;DHT22;53236;43.666;18.444;2024-01-30T10:48:42;34.00;25.30
65462;DHT22;53236;43.666;18.444;2024-01-30T10:51:10;33.70;25.60
65462;DHT22;53236;43.666;18.444;2024-01-30T10:53:36;33.40;26.40
65462;DHT22;53236;43.666;18.444;2024-01-30T10:56:03;32.80;25.90
65462;DHT22;53236;43.666;18.444;2024-01-30T10:58:30;32.90;26.00
65462;DHT22;53236;43.666;18.444;2024-01-30T11:00:56;32.60;25.50
65462;DHT22;53236;43.666;18.444;2024-01-30T11:03:23;32.00;26.40
65462;DHT22;53236;43.666;18.444;2024-01-30T11:05:50;32.80;26.20
65462;DHT22;53236;43.666;18.444;2024-01-30T11:08:25;32.70;25.20
65462;DHT22;53236;43.666;18.444;2024-01-30T11:10:59;31.30;25.20
65462;DHT22;53236;43.666;18.444;2024-01-30T11:13:31;31.90;25.50
65462;DHT22;53236;43.666;18.444;2024-01-30T11:16:04;32.30;25.30
65462;DHT22;53236;43.666;18.444;2024-01-30T11:18:31;32.50;25.60
65462;DHT22;53236;43.666;18.444;2024-01-30T11:20:58;31.30;25.20
65462;DHT22;53236;43.666;18.444;2024-01-30T11:23:27;31.30;25.50
65462;DHT22;53236;43.666;18.444;2024-01-30T11:25:53;31.10;25.60
65462;DHT22;53236;43.666;18.444;2024-01-30T11:28:21;30.60;25.50
65462;DHT22;53236;43.666;18.444;2024-01-30T11:30:47;30.00;25.40
65462;DHT22;53236;43.666;18.444;2024-01-30T11:33:26;30.00;25.20
65462;DHT22;53236;43.666;18.444;2024-01-30T11:35:53;29.50;25.30
65462;DHT22;53236;43.666;18.444;2024-01-30T11:38:18;28.90;24.80
65462;DHT22;53236;43.666;18.444;2024-01-30T11:40:45;27.90;25.30
65462;DHT22;53236;43.666;18.444;2024-01-30T11:43:11;26.00;25.50
65462;DHT22;53236;43.666;18.444;2024-01-30T11:45:37;23.50;27.30
65462;DHT22;53236;43.666;18.444;2024-01-30T11:48:05;21.40;28.10
65462;DHT22;53236;43.666;18.444;2024-01-30T11:50:36;19.60;28.90
65462;DHT22;53236;43.666;18.444;2024-01-30T11:53:04;17.70;30.10
65462;DHT22;53236;43.666;18.444;2024-01-30T11:55:30;16.50;32.20
65462;DHT22;53236;43.666;18.444;2024-01-30T11:57:59;15.40;33.20
65462;DHT22;53236;43.666;18.444;2024-01-30T12:00:25;14.60;34.60
65462;DHT22;53236;43.666;18.444;2024-01-30T12:02:52;13.80;36.40
65462;DHT22;53236;43.666;18.444;2024-01-30T12:05:22;13.10;35.90
65462;DHT22;53236;43.666;18.444;2024-01-30T12:07:47;12.90;35.80
65462;DHT22;53236;43.666;18.444;2024-01-30T12:10:14;12.40;36.30
65462;DHT22;53236;43.666;18.444;2024-01-30T12:12:42;12.00;37.40
65462;DHT22;53236;43.666;18.444;2024-01-30T12:15:09;11.60;36.90
65462;DHT22;53236;43.666;18.444;2024-01-30T12:17:35;11.20;38.90
65462;DHT22;53236;43.666;18.444;2024-01-30T12:20:11;11.00;38.40
65462;DHT22;53236;43.666;18.444;2024-01-30T12:22:38;10.50;40.40
65462;DHT22;53236;43.666;18.444;2024-01-30T12:25:14;9.90;40.60
65462;DHT22;53236;43.666;18.444;2024-01-30T12:27:42;9.50;41.10
65462;DHT22;53236;43.666;18.444;2024-01-30T12:30:10;9.30;42.80
65462;DHT22;53236;43.666;18.444;2024-01-30T12:32:37;9.00;43.90
65462;DHT22;53236;43.666;18.444;2024-01-30T12:35:03;8.90;43.80
65462;DHT22;53236;43.666;18.444;2024-01-30T12:37:30;8.90;43.20
65462;DHT22;53236;43.666;18.444;2024-01-30T12:39:57;8.90;43.60
65462;DHT22;53236;43.666;18.444;2024-01-30T12:42:22;8.80;44.40
65462;DHT22;53236;43.666;18.444;2024-01-30T12:44:49;8.70;44.90
65462;DHT22;53236;43.666;18.444;2024-01-30T12:47:15;8.50;44.90
65462;DHT22;53236;43.666;18.444;2024-01-30T12:49:44;8.40;44.80
65462;DHT22;53236;43.666;18.444;2024-01-30T12:52:11;8.30;44.80
65462;DHT22;53236;43.666;18.444;2024-01-30T12:54:37;8.30;44.90
65462;DHT22;53236;43.666;18.444;2024-01-30T12:57:04;8.10;45.30
65462;DHT22;53236;43.666;18.444;2024-01-30T12:59:30;8.00;45.20
65462;DHT22;53236;43.666;18.444;2024-01-30T13:01:56;8.10;45.60
65462;DHT22;53236;43.666;18.444;2024-01-30T13:04:22;8.00;45.10
65462;DHT22;53236;43.666;18.444;2024-01-30T13:06:48;7.90;45.40
65462;DHT22;53236;43.666;18.444;2024-01-30T13:09:14;7.90;45.00
65462;DHT22;53236;43.666;18.444;2024-01-30T13:11:40;7.80;45.10
65462;DHT22;53236;43.666;18.444;2024-01-30T13:14:05;7.70;45.40
65462;DHT22;53236;43.666;18.444;2024-01-30T13:16:31;7.60;45.20
65462;DHT22;53236;43.666;18.444;2024-01-30T13:18:57;7.50;45.50
65462;DHT22;53236;43.666;18.444;2024-01-30T13:21:23;7.40;45.70
65462;DHT22;53236;43.666;18.444;2024-01-30T13:23:48;7.40;45.60
65462;DHT22;53236;43.666;18.444;2024-01-30T13:26:18;7.20;45.50
65462;DHT22;53236;43.666;18.444;2024-01-30T13:28:44;7.20;45.80
65462;DHT22;53236;43.666;18.444;2024-01-30T13:31:10;7.20;45.90
65462;DHT22;53236;43.666;18.444;2024-01-30T13:33:36;7.20;45.90
65462;DHT22;53236;43.666;18.444;2024-01-30T13:36:01;7.00;45.50
65462;DHT22;53236;43.666;18.444;2024-01-30T13:38:27;7.00;46.40
65462;DHT22;53236;43.666;18.444;2024-01-30T13:40:53;7.00;46.40
65462;DHT22;53236;43.666;18.444;2024-01-30T13:43:19;7.00;46.00
65462;DHT22;53236;43.666;18.444;2024-01-30T13:45:44;6.90;46.10
65462;DHT22;53236;43.666;18.444;2024-01-30T13:48:11;6.80;46.20
65462;DHT22;53236;43.666;18.444;2024-01-30T13:50:37;6.80;46.60
65462;DHT22;53236;43.666;18.444;2024-01-30T13:53:03;6.60;46.70
65462;DHT22;53236;43.666;18.444;2024-01-30T13:55:30;6.70;47.30
65462;DHT22;53236;43.666;18.444;2024-01-30T13:57:55;6.70;47.30
65462;DHT22;53236;43.666;18.444;2024-01-30T14:00:22;6.60;47.10
65462;DHT22;53236;43.666;18.444;2024-01-30T14:02:48;6.60;46.80
65462;DHT22;53236;43.666;18.444;2024-01-30T14:05:14;6.50;46.80
65462;DHT22;53236;43.666;18.444;2024-01-30T14:07:41;6.40;46.50
65462;DHT22;53236;43.666;18.444;2024-01-30T14:10:09;6.30;46.80
65462;DHT22;53236;43.666;18.444;2024-01-30T14:12:36;6.30;46.40
65462;DHT22;53236;43.666;18.444;2024-01-30T14:15:02;6.30;46.90
65462;DHT22;53236;43.666;18.444;2024-01-30T14:17:28;6.20;46.90
65462;DHT22;53236;43.666;18.444;2024-01-30T14:19:54;6.10;47.10
65462;DHT22;53236;43.666;18.444;2024-01-30T14:22:19;6.10;47.60
65462;DHT22;53236;43.666;18.444;2024-01-30T14:24:45;6.00;47.80
65462;DHT22;53236;43.666;18.444;2024-01-30T14:27:12;5.90;48.10
65462;DHT22;53236;43.666;18.444;2024-01-30T14:29:37;5.80;47.40
65462;DHT22;53236;43.666;18.444;2024-01-30T14:32:04;5.60;47.40
65462;DHT22;53236;43.666;18.444;2024-01-30T14:34:30;5.60;48.10
65462;DHT22;53236;43.666;18.444;2024-01-30T14:36:55;5.50;48.60
65462;DHT22;53236;43.666;18.444;2024-01-30T14:39:22;5.40;48.70
65462;DHT22;53236;43.666;18.444;2024-01-30T14:41:47;5.20;48.80
65462;DHT22;53236;43.666;18.444;2024-01-30T14:44:13;5.20;48.80
65462;DHT22;53236;43.666;18.444;2024-01-30T14:46:39;5.10;48.80
65462;DHT22;53236;43.666;18.444;2024-01-30T14:49:05;5.00;49.40
65462;DHT22;53236;43.666;18.444;2024-01-30T14:51:33;4.90;49.90
65462;DHT22;53236;43.666;18.444;2024-01-30T14:53:59;4.80;50.60
65462;DHT22;53236;43.666;18.444;2024-01-30T14:56:26;4.60;51.60
65462;DHT22;53236;43.666;18.444;2024-01-30T14:58:52;4.50;51.20
65462;DHT22;53236;43.666;18.444;2024-01-30T15:01:18;4.50;51.70
65462;DHT22;53236;43.666;18.444;2024-01-30T15:03:44;4.30;52.60
65462;DHT22;53236;43.666;18.444;2024-01-30T15:06:12;4.20;53.10
65462;DHT22;53236;43.666;18.444;2024-01-30T15:08:38;4.00;53.50
65462;DHT22;53236;43.666;18.444;2024-01-30T15:11:04;3.80;54.60
65462;DHT22;53236;43.666;18.444;2024-01-30T15:13:30;3.60;56.80